sensor_id;sensor_type;location;lat;lon;timestamp;P1;durP1;ratioP1;P2;durP2;ratioP2
39600;SDS011;25297;44.758;11.310;2024-03-07T00:02:17;12.48;;;7.35;;
39600;SDS011;25297;44.758;11.310;2024-03-07T00:04:45;12.20;;;7.72;;
39600;SDS011;25297;44.758;11.310;2024-03-07T00:07:11;12.95;;;6.93;;
39600;SDS011;25297;44.758;11.310;2024-03-07T00:09:37;8.68;;;6.60;;
39600;SDS011;25297;44.758;11.310;2024-03-07T00:12:03;8.65;;;7.25;;
39600;SDS011;25297;44.758;11.310;2024-03-07T00:14:31;10.18;;;6.68;;
39600;SDS011;25297;44.758;11.310;2024-03-07T00:16:57;13.95;;;6.95;;
39600;SDS011;25297;44.758;11.310;2024-03-07T00:19:26;10.98;;;6.93;;
39600;SDS011;25297;44.758;11.310;2024-03-07T00:21:52;11.23;;;6.88;;
39600;SDS011;25297;44.758;11.310;2024-03-07T00:24:19;11.05;;;6.75;;
39600;SDS011;25297;44.758;11.310;2024-03-07T00:26:45;8.20;;;6.57;;
39600;SDS011;25297;44.758;11.310;2024-03-07T00:29:10;13.95;;;7.32;;
39600;SDS011;25297;44.758;11.310;2024-03-07T00:31:36;10.93;;;6.78;;
39600;SDS011;25297;44.758;11.310;2024-03-07T00:34:02;10.23;;;6.07;;
39600;SDS011;25297;44.758;11.310;2024-03-07T00:36:27;13.73;;;7.43;;
39600;SDS011;25297;44.758;11.310;2024-03-07T00:38:53;11.30;;;6.88;;
39600;SDS011;25297;44.758;11.310;2024-03-07T00:41:19;14.98;;;7.50;;
39600;SDS011;25297;44.758;11.310;2024-03-07T00:43:45;12.20;;;8.30;;
39600;SDS011;25297;44.758;11.310;2024-03-07T00:46:11;11.57;;;7.28;;
39600;SDS011;25297;44.758;11.310;2024-03-07T00:48:37;13.50;;;7.90;;
39600;SDS011;25297;44.758;11.310;2024-03-07T00:51:03;12.55;;;7.93;;
39600;SDS011;25297;44.758;11.310;2024-03-07T00:53:29;10.65;;;7.25;;
39600;SDS011;25297;44.758;11.310;2024-03-07T00:55:55;10.60;;;8.23;;
39600;SDS011;25297;44.758;11.310;2024-03-07T00:58:21;12.57;;;8.35;;
39600;SDS011;25297;44.758;11.310;2024-03-07T01:00:47;12.27;;;8.98;;
39600;SDS011;25297;44.758;11.310;2024-03-07T01:03:13;11.05;;;7.35;;
39600;SDS011;25297;44.758;11.310;2024-03-07T01:05:42;12.10;;;7.45;;
39600;SDS011;25297;44.758;11.310;2024-03-07T01:08:08;12.80;;;7.65;;
39600;SDS011;25297;44.758;11.310;2024-03-07T01:10:34;11.07;;;7.38;;
39600;SDS011;25297;44.758;11.310;2024-03-07T01:13:00;10.55;;;7.28;;
39600;SDS011;25297;44.758;11.310;2024-03-07T01:15:27;13.63;;;7.03;;
39600;SDS011;25297;44.758;11.310;2024-03-07T01:17:53;7.35;;;4.63;;
39600;SDS011;25297;44.758;11.310;2024-03-07T01:20:19;6.75;;;4.63;;
39600;SDS011;25297;44.758;11.310;2024-03-07T01:22:44;6.63;;;4.80;;
39600;SDS011;25297;44.758;11.310;2024-03-07T01:25:10;10.80;;;5.97;;
39600;SDS011;25297;44.758;11.310;2024-03-07T01:27:37;9.25;;;5.40;;
39600;SDS011;25297;44.758;11.310;2024-03-07T01:30:04;6.05;;;4.95;;
39600;SDS011;25297;44.758;11.310;2024-03-07T01:32:32;7.30;;;5.60;;
39600;SDS011;25297;44.758;11.310;2024-03-07T01:34:58;7.53;;;5.03;;
39600;SDS011;25297;44.758;11.310;2024-03-07T01:37:24;7.93;;;5.57;;
39600;SDS011;25297;44.758;11.310;2024-03-07T01:39:50;9.18;;;5.38;;
39600;SDS011;25297;44.758;11.310;2024-03-07T01:42:15;8.82;;;5.07;;
39600;SDS011;25297;44.758;11.310;2024-03-07T01:44:41;10.20;;;6.55;;
39600;SDS011;25297;44.758;11.310;2024-03-07T01:47:08;8.90;;;5.80;;
39600;SDS011;25297;44.758;11.310;2024-03-07T01:49:35;11.23;;;6.53;;
39600;SDS011;25297;44.758;11.310;2024-03-07T01:52:01;9.57;;;6.10;;
39600;SDS011;25297;44.758;11.310;2024-03-07T01:54:30;8.23;;;6.07;;
39600;SDS011;25297;44.758;11.310;2024-03-07T01:56:56;9.23;;;6.47;;
39600;SDS011;25297;44.758;11.310;2024-03-07T01:59:23;10.82;;;7.10;;
39600;SDS011;25297;44.758;11.310;2024-03-07T02:01:50;10.73;;;7.53;;
39600;SDS011;25297;44.758;11.310;2024-03-07T02:04:16;12.75;;;7.95;;
39600;SDS011;25297;44.758;11.310;2024-03-07T02:06:41;9.82;;;7.63;;
39600;SDS011;25297;44.758;11.310;2024-03-07T02:09:07;9.20;;;7.20;;
39600;SDS011;25297;44.758;11.310;2024-03-07T02:11:33;8.80;;;7.43;;
39600;SDS011;25297;44.758;11.310;2024-03-07T02:13:59;11.32;;;7.30;;
39600;SDS011;25297;44.758;11.310;2024-03-07T02:16:25;8.38;;;7.30;;
39600;SDS011;25297;44.758;11.310;2024-03-07T02:18:51;10.88;;;7.45;;
39600;SDS011;25297;44.758;11.310;2024-03-07T02:21:16;9.20;;;6.35;;
39600;SDS011;25297;44.758;11.310;2024-03-07T02:23:42;10.30;;;7.22;;
39600;SDS011;25297;44.758;11.310;2024-03-07T02:26:08;10.45;;;7.18;;
39600;SDS011;25297;44.758;11.310;2024-03-07T02:28:34;9.90;;;6.88;;
39600;SDS011;25297;44.758;11.310;2024-03-07T02:31:00;8.77;;;7.20;;
39600;SDS011;25297;44.758;11.310;2024-03-07T02:33:26;12.23;;;7.63;;
39600;SDS011;25297;44.758;11.310;2024-03-07T02:35:52;9.68;;;7.00;;
39600;SDS011;25297;44.758;11.310;2024-03-07T02:38:17;7.05;;;6.00;;
39600;SDS011;25297;44.758;11.310;2024-03-07T02:40:44;7.35;;;6.63;;
39600;SDS011;25297;44.758;11.310;2024-03-07T02:43:11;10.02;;;6.90;;
39600;SDS011;25297;44.758;11.310;2024-03-07T02:45:37;8.75;;;7.20;;
39600;SDS011;25297;44.758;11.310;2024-03-07T02:48:03;7.68;;;6.45;;
39600;SDS011;25297;44.758;11.310;2024-03-07T02:50:30;9.57;;;6.70;;
39600;SDS011;25297;44.758;11.310;2024-03-07T02:52:56;12.13;;;7.75;;
39600;SDS011;25297;44.758;11.310;2024-03-07T02:55:21;8.70;;;6.75;;
39600;SDS011;25297;44.758;11.310;2024-03-07T02:57:47;9.07;;;6.75;;
39600;SDS011;25297;44.758;11.310;2024-03-07T03:00:13;10.90;;;7.70;;
39600;SDS011;25297;44.758;11.310;2024-03-07T03:02:45;8.82;;;6.68;;
39600;SDS011;25297;44.758;11.310;2024-03-07T03:05:16;9.85;;;7.30;;
39600;SDS011;25297;44.758;11.310;2024-03-07T03:07:43;10.02;;;7.57;;
39600;SDS011;25297;44.758;11.310;2024-03-07T03:10:20;10.23;;;7.07;;
39600;SDS011;25297;44.758;11.310;2024-03-07T03:12:51;11.23;;;8.98;;
39600;SDS011;25297;44.758;11.310;2024-03-07T03:15:19;11.75;;;8.95;;
39600;SDS011;25297;44.758;11.310;2024-03-07T03:17:45;10.73;;;8.88;;
39600;SDS011;25297;44.758;11.310;2024-03-07T03:20:11;13.57;;;9.48;;
39600;SDS011;25297;44.758;11.310;2024-03-07T03:22:47;12.05;;;10.25;;
39600;SDS011;25297;44.758;11.310;2024-03-07T03:25:14;15.57;;;10.27;;
39600;SDS011;25297;44.758;11.310;2024-03-07T03:27:39;11.07;;;9.35;;
39600;SDS011;25297;44.758;11.310;2024-03-07T03:30:05;15.50;;;10.98;;
39600;SDS011;25297;44.758;11.310;2024-03-07T03:32:32;15.93;;;12.00;;
39600;SDS011;25297;44.758;11.310;2024-03-07T03:34:57;13.80;;;10.45;;
39600;SDS011;25297;44.758;11.310;2024-03-07T03:37:23;9.73;;;8.73;;
39600;SDS011;25297;44.758;11.310;2024-03-07T03:39:49;15.52;;;11.35;;
39600;SDS011;25297;44.758;11.310;2024-03-07T03:42:15;16.50;;;11.02;;
39600;SDS011;25297;44.758;11.310;2024-03-07T03:44:41;12.27;;;8.82;;
39600;SDS011;25297;44.758;11.310;2024-03-07T03:47:06;11.25;;;9.13;;
39600;SDS011;25297;44.758;11.310;2024-03-07T03:49:32;12.88;;;10.52;;
39600;SDS011;25297;44.758;11.310;2024-03-07T03:51:58;13.02;;;9.68;;
39600;SDS011;25297;44.758;11.310;2024-03-07T03:54:24;13.15;;;10.57;;
39600;SDS011;25297;44.758;11.310;2024-03-07T03:56:50;12.60;;;10.15;;
39600;SDS011;25297;44.758;11.310;2024-03-07T03:59:16;15.10;;;10.18;;
39600;SDS011;25297;44.758;11.310;2024-03-07T04:01:41;13.35;;;10.38;;
39600;SDS011;25297;44.758;11.310;2024-03-07T04:04:07;13.07;;;9.75;;
39600;SDS011;25297;44.758;11.310;2024-03-07T04:06:34;17.25;;;10.80;;
39600;SDS011;25297;44.758;11.310;2024-03-07T04:09:00;17.23;;;10.77;;
39600;SDS011;25297;44.758;11.310;2024-03-07T04:11:25;15.32;;;11.05;;
39600;SDS011;25297;44.758;11.310;2024-03-07T04:13:51;14.80;;;11.35;;
39600;SDS011;25297;44.758;11.310;2024-03-07T04:16:17;14.13;;;10.85;;
39600;SDS011;25297;44.758;11.310;2024-03-07T04:18:43;14.25;;;9.65;;
39600;SDS011;25297;44.758;11.310;2024-03-07T04:21:09;15.50;;;10.90;;
39600;SDS011;25297;44.758;11.310;2024-03-07T04:23:34;12.27;;;10.93;;
39600;SDS011;25297;44.758;11.310;2024-03-07T04:26:00;14.50;;;10.45;;
39600;SDS011;25297;44.758;11.310;2024-03-07T04:28:25;17.45;;;11.35;;
39600;SDS011;25297;44.758;11.310;2024-03-07T04:30:52;13.93;;;11.60;;
39600;SDS011;25297;44.758;11.310;2024-03-07T04:33:18;11.75;;;9.40;;
39600;SDS011;25297;44.758;11.310;2024-03-07T04:35:44;13.68;;;10.88;;
39600;SDS011;25297;44.758;11.310;2024-03-07T04:38:10;18.85;;;12.13;;
39600;SDS011;25297;44.758;11.310;2024-03-07T04:40:40;14.52;;;10.95;;
39600;SDS011;25297;44.758;11.310;2024-03-07T04:43:08;13.63;;;12.18;;
39600;SDS011;25297;44.758;11.310;2024-03-07T04:45:34;13.13;;;11.70;;
39600;SDS011;25297;44.758;11.310;2024-03-07T04:47:59;13.52;;;11.00;;
39600;SDS011;25297;44.758;11.310;2024-03-07T04:50:25;11.50;;;10.32;;
39600;SDS011;25297;44.758;11.310;2024-03-07T04:52:51;15.52;;;11.02;;
39600;SDS011;25297;44.758;11.310;2024-03-07T04:55:17;18.30;;;12.07;;
39600;SDS011;25297;44.758;11.310;2024-03-07T04:57:43;13.40;;;10.95;;
39600;SDS011;25297;44.758;11.310;2024-03-07T05:00:10;15.45;;;11.40;;
39600;SDS011;25297;44.758;11.310;2024-03-07T05:02:40;12.90;;;10.77;;
39600;SDS011;25297;44.758;11.310;2024-03-07T05:05:06;16.42;;;13.38;;
39600;SDS011;25297;44.758;11.310;2024-03-07T05:07:32;15.20;;;12.63;;
39600;SDS011;25297;44.758;11.310;2024-03-07T05:09:58;14.95;;;11.68;;
39600;SDS011;25297;44.758;11.310;2024-03-07T05:12:24;15.82;;;12.63;;
39600;SDS011;25297;44.758;11.310;2024-03-07T05:14:49;16.20;;;12.50;;
39600;SDS011;25297;44.758;11.310;2024-03-07T05:17:15;14.73;;;12.98;;
39600;SDS011;25297;44.758;11.310;2024-03-07T05:19:40;15.52;;;11.55;;
39600;SDS011;25297;44.758;11.310;2024-03-07T05:22:06;14.25;;;11.85;;
39600;SDS011;25297;44.758;11.310;2024-03-07T05:24:32;15.02;;;11.50;;
39600;SDS011;25297;44.758;11.310;2024-03-07T05:26:59;16.40;;;12.45;;
39600;SDS011;25297;44.758;11.310;2024-03-07T05:29:24;14.55;;;12.30;;
39600;SDS011;25297;44.758;11.310;2024-03-07T05:31:50;16.17;;;12.95;;
39600;SDS011;25297;44.758;11.310;2024-03-07T05:34:16;15.68;;;12.30;;
39600;SDS011;25297;44.758;11.310;2024-03-07T05:36:45;17.42;;;13.45;;
39600;SDS011;25297;44.758;11.310;2024-03-07T05:39:14;17.35;;;12.15;;
39600;SDS011;25297;44.758;11.310;2024-03-07T05:41:42;13.20;;;11.68;;
39600;SDS011;25297;44.758;11.310;2024-03-07T05:44:11;18.52;;;13.35;;
39600;SDS011;25297;44.758;11.310;2024-03-07T05:46:38;13.75;;;12.25;;
39600;SDS011;25297;44.758;11.310;2024-03-07T05:49:11;16.58;;;11.50;;
39600;SDS011;25297;44.758;11.310;2024-03-07T05:51:36;14.35;;;12.75;;
39600;SDS011;25297;44.758;11.310;2024-03-07T05:54:02;13.15;;;11.60;;
39600;SDS011;25297;44.758;11.310;2024-03-07T05:56:34;14.48;;;12.88;;
39600;SDS011;25297;44.758;11.310;2024-03-07T05:59:01;15.93;;;11.75;;
39600;SDS011;25297;44.758;11.310;2024-03-07T06:01:29;15.30;;;12.15;;
39600;SDS011;25297;44.758;11.310;2024-03-07T06:03:57;16.45;;;11.45;;
39600;SDS011;25297;44.758;11.310;2024-03-07T06:06:24;16.70;;;11.55;;
39600;SDS011;25297;44.758;11.310;2024-03-07T06:08:50;13.63;;;11.23;;
39600;SDS011;25297;44.758;11.310;2024-03-07T06:11:15;12.60;;;11.30;;
39600;SDS011;25297;44.758;11.310;2024-03-07T06:13:46;16.25;;;10.68;;
39600;SDS011;25297;44.758;11.310;2024-03-07T06:16:12;13.63;;;12.23;;
39600;SDS011;25297;44.758;11.310;2024-03-07T06:18:39;15.93;;;12.10;;
39600;SDS011;25297;44.758;11.310;2024-03-07T06:21:06;16.35;;;11.98;;
39600;SDS011;25297;44.758;11.310;2024-03-07T06:23:33;20.63;;;13.43;;
39600;SDS011;25297;44.758;11.310;2024-03-07T06:25:59;16.33;;;11.68;;
39600;SDS011;25297;44.758;11.310;2024-03-07T06:28:26;11.93;;;10.73;;
39600;SDS011;25297;44.758;11.310;2024-03-07T06:30:54;14.68;;;10.70;;
39600;SDS011;25297;44.758;11.310;2024-03-07T06:33:20;17.85;;;11.82;;
39600;SDS011;25297;44.758;11.310;2024-03-07T06:35:46;15.70;;;11.20;;
39600;SDS011;25297;44.758;11.310;2024-03-07T06:38:13;14.10;;;11.68;;
39600;SDS011;25297;44.758;11.310;2024-03-07T06:40:39;20.55;;;12.27;;
39600;SDS011;25297;44.758;11.310;2024-03-07T06:43:05;21.02;;;14.32;;
39600;SDS011;25297;44.758;11.310;2024-03-07T06:45:35;20.02;;;12.65;;
39600;SDS011;25297;44.758;11.310;2024-03-07T06:48:02;19.23;;;12.20;;
39600;SDS011;25297;44.758;11.310;2024-03-07T06:50:29;20.13;;;12.23;;
39600;SDS011;25297;44.758;11.310;2024-03-07T06:52:54;18.35;;;14.13;;
39600;SDS011;25297;44.758;11.310;2024-03-07T06:55:21;16.40;;;12.45;;
39600;SDS011;25297;44.758;11.310;2024-03-07T06:57:46;19.27;;;13.30;;
39600;SDS011;25297;44.758;11.310;2024-03-07T07:00:13;19.58;;;13.02;;
39600;SDS011;25297;44.758;11.310;2024-03-07T07:02:44;19.95;;;12.23;;
39600;SDS011;25297;44.758;11.310;2024-03-07T07:05:10;18.50;;;12.88;;
39600;SDS011;25297;44.758;11.310;2024-03-07T07:07:41;20.92;;;13.30;;
39600;SDS011;25297;44.758;11.310;2024-03-07T07:10:07;19.17;;;13.40;;
39600;SDS011;25297;44.758;11.310;2024-03-07T07:12:39;17.73;;;11.40;;
39600;SDS011;25297;44.758;11.310;2024-03-07T07:15:05;17.95;;;11.20;;
39600;SDS011;25297;44.758;11.310;2024-03-07T07:17:31;14.27;;;9.48;;
39600;SDS011;25297;44.758;11.310;2024-03-07T07:19:59;11.85;;;9.45;;
39600;SDS011;25297;44.758;11.310;2024-03-07T07:22:25;15.35;;;10.63;;
39600;SDS011;25297;44.758;11.310;2024-03-07T07:24:51;17.20;;;11.00;;
39600;SDS011;25297;44.758;11.310;2024-03-07T07:27:16;12.75;;;10.85;;
39600;SDS011;25297;44.758;11.310;2024-03-07T07:29:43;14.10;;;10.63;;
39600;SDS011;25297;44.758;11.310;2024-03-07T07:32:10;14.75;;;11.27;;
39600;SDS011;25297;44.758;11.310;2024-03-07T07:34:37;12.95;;;9.60;;
39600;SDS011;25297;44.758;11.310;2024-03-07T07:37:03;11.63;;;8.73;;
39600;SDS011;25297;44.758;11.310;2024-03-07T07:39:29;11.25;;;8.70;;
39600;SDS011;25297;44.758;11.310;2024-03-07T07:41:56;13.85;;;8.93;;
39600;SDS011;25297;44.758;11.310;2024-03-07T07:44:22;13.25;;;9.40;;
39600;SDS011;25297;44.758;11.310;2024-03-07T07:46:48;10.18;;;8.30;;
39600;SDS011;25297;44.758;11.310;2024-03-07T07:49:14;14.63;;;7.97;;
39600;SDS011;25297;44.758;11.310;2024-03-07T07:51:41;13.00;;;9.15;;
39600;SDS011;25297;44.758;11.310;2024-03-07T07:54:07;12.65;;;8.68;;
39600;SDS011;25297;44.758;11.310;2024-03-07T07:56:34;13.32;;;8.38;;
39600;SDS011;25297;44.758;11.310;2024-03-07T07:59:00;12.82;;;8.48;;
39600;SDS011;25297;44.758;11.310;2024-03-07T08:01:26;14.02;;;8.95;;
39600;SDS011;25297;44.758;11.310;2024-03-07T08:03:53;13.50;;;10.10;;
39600;SDS011;25297;44.758;11.310;2024-03-07T08:06:19;15.00;;;10.55;;
39600;SDS011;25297;44.758;11.310;2024-03-07T08:08:45;15.35;;;10.52;;
39600;SDS011;25297;44.758;11.310;2024-03-07T08:11:11;15.52;;;10.48;;
39600;SDS011;25297;44.758;11.310;2024-03-07T08:13:39;12.30;;;10.15;;
39600;SDS011;25297;44.758;11.310;2024-03-07T08:16:05;14.43;;;9.75;;
39600;SDS011;25297;44.758;11.310;2024-03-07T08:18:31;12.23;;;8.85;;
39600;SDS011;25297;44.758;11.310;2024-03-07T08:20:57;13.85;;;9.60;;
39600;SDS011;25297;44.758;11.310;2024-03-07T08:23:23;12.93;;;9.35;;
39600;SDS011;25297;44.758;11.310;2024-03-07T08:25:51;12.90;;;9.50;;
39600;SDS011;25297;44.758;11.310;2024-03-07T08:28:17;17.83;;;10.35;;
39600;SDS011;25297;44.758;11.310;2024-03-07T08:30:43;14.82;;;9.90;;
39600;SDS011;25297;44.758;11.310;2024-03-07T08:33:09;17.95;;;10.52;;
39600;SDS011;25297;44.758;11.310;2024-03-07T08:35:35;12.88;;;8.38;;
39600;SDS011;25297;44.758;11.310;2024-03-07T08:38:01;14.10;;;8.43;;
39600;SDS011;25297;44.758;11.310;2024-03-07T08:40:28;13.43;;;7.88;;
39600;SDS011;25297;44.758;11.310;2024-03-07T08:42:57;11.95;;;7.97;;
39600;SDS011;25297;44.758;11.310;2024-03-07T08:45:23;9.75;;;7.57;;
39600;SDS011;25297;44.758;11.310;2024-03-07T08:47:50;10.57;;;7.53;;
39600;SDS011;25297;44.758;11.310;2024-03-07T08:50:17;10.50;;;6.20;;
39600;SDS011;25297;44.758;11.310;2024-03-07T08:52:44;11.82;;;6.95;;
39600;SDS011;25297;44.758;11.310;2024-03-07T08:55:14;8.45;;;6.30;;
39600;SDS011;25297;44.758;11.310;2024-03-07T08:57:52;10.75;;;7.15;;
39600;SDS011;25297;44.758;11.310;2024-03-07T09:00:18;8.93;;;6.00;;
39600;SDS011;25297;44.758;11.310;2024-03-07T09:02:47;9.10;;;5.80;;
39600;SDS011;25297;44.758;11.310;2024-03-07T09:05:20;7.53;;;5.85;;
39600;SDS011;25297;44.758;11.310;2024-03-07T09:07:47;11.40;;;6.32;;
39600;SDS011;25297;44.758;11.310;2024-03-07T09:10:15;8.60;;;5.72;;
39600;SDS011;25297;44.758;11.310;2024-03-07T09:12:41;9.75;;;4.88;;
39600;SDS011;25297;44.758;11.310;2024-03-07T09:15:08;7.15;;;5.22;;
39600;SDS011;25297;44.758;11.310;2024-03-07T09:17:38;10.07;;;5.43;;
39600;SDS011;25297;44.758;11.310;2024-03-07T09:20:04;8.75;;;6.18;;
39600;SDS011;25297;44.758;11.310;2024-03-07T09:22:31;5.72;;;3.95;;
39600;SDS011;25297;44.758;11.310;2024-03-07T09:24:57;7.05;;;4.18;;
39600;SDS011;25297;44.758;11.310;2024-03-07T09:27:23;5.18;;;2.80;;
39600;SDS011;25297;44.758;11.310;2024-03-07T09:29:49;5.15;;;3.10;;
39600;SDS011;25297;44.758;11.310;2024-03-07T09:32:15;6.25;;;3.45;;
39600;SDS011;25297;44.758;11.310;2024-03-07T09:34:42;5.40;;;3.15;;
39600;SDS011;25297;44.758;11.310;2024-03-07T09:37:07;6.10;;;4.03;;
39600;SDS011;25297;44.758;11.310;2024-03-07T09:39:33;6.05;;;3.78;;
39600;SDS011;25297;44.758;11.310;2024-03-07T09:42:07;7.27;;;3.33;;
39600;SDS011;25297;44.758;11.310;2024-03-07T09:44:38;4.35;;;2.90;;
39600;SDS011;25297;44.758;11.310;2024-03-07T09:47:05;6.32;;;3.35;;
39600;SDS011;25297;44.758;11.310;2024-03-07T09:49:33;6.22;;;3.20;;
39600;SDS011;25297;44.758;11.310;2024-03-07T09:52:01;6.82;;;3.15;;
39600;SDS011;25297;44.758;11.310;2024-03-07T09:54:33;5.57;;;3.28;;
39600;SDS011;25297;44.758;11.310;2024-03-07T09:56:59;5.65;;;2.80;;
39600;SDS011;25297;44.758;11.310;2024-03-07T09:59:28;6.75;;;3.13;;
39600;SDS011;25297;44.758;11.310;2024-03-07T10:01:57;4.50;;;2.60;;
39600;SDS011;25297;44.758;11.310;2024-03-07T10:04:48;4.72;;;3.05;;
39600;SDS011;25297;44.758;11.310;2024-03-07T10:07:15;7.72;;;3.10;;
39600;SDS011;25297;44.758;11.310;2024-03-07T10:09:41;5.60;;;3.03;;
39600;SDS011;25297;44.758;11.310;2024-03-07T10:12:08;4.65;;;3.03;;
39600;SDS011;25297;44.758;11.310;2024-03-07T10:14:56;6.95;;;3.28;;
39600;SDS011;25297;44.758;11.310;2024-03-07T10:17:25;3.33;;;2.60;;
39600;SDS011;25297;44.758;11.310;2024-03-07T10:19:54;3.08;;;2.67;;
39600;SDS011;25297;44.758;11.310;2024-03-07T10:22:21;4.78;;;3.00;;
39600;SDS011;25297;44.758;11.310;2024-03-07T10:24:51;4.97;;;2.55;;
39600;SDS011;25297;44.758;11.310;2024-03-07T10:27:18;4.07;;;2.63;;
39600;SDS011;25297;44.758;11.310;2024-03-07T10:29:46;4.10;;;2.28;;
39600;SDS011;25297;44.758;11.310;2024-03-07T10:32:13;6.13;;;2.92;;
39600;SDS011;25297;44.758;11.310;2024-03-07T10:34:38;5.63;;;2.50;;
39600;SDS011;25297;44.758;11.310;2024-03-07T10:37:04;3.05;;;2.55;;
39600;SDS011;25297;44.758;11.310;2024-03-07T10:39:30;4.20;;;2.30;;
39600;SDS011;25297;44.758;11.310;2024-03-07T10:41:56;5.78;;;2.47;;
39600;SDS011;25297;44.758;11.310;2024-03-07T10:44:30;5.30;;;2.17;;
39600;SDS011;25297;44.758;11.310;2024-03-07T10:46:57;7.68;;;2.58;;
39600;SDS011;25297;44.758;11.310;2024-03-07T10:49:28;5.85;;;2.47;;
39600;SDS011;25297;44.758;11.310;2024-03-07T10:54:52;3.08;;;2.20;;
39600;SDS011;25297;44.758;11.310;2024-03-07T10:57:49;3.83;;;2.08;;
39600;SDS011;25297;44.758;11.310;2024-03-07T11:00:20;3.08;;;1.88;;
39600;SDS011;25297;44.758;11.310;2024-03-07T11:03:00;3.60;;;1.80;;
39600;SDS011;25297;44.758;11.310;2024-03-07T11:05:27;3.67;;;2.42;;
39600;SDS011;25297;44.758;11.310;2024-03-07T11:08:00;5.70;;;2.53;;
39600;SDS011;25297;44.758;11.310;2024-03-07T11:10:36;3.75;;;2.58;;
39600;SDS011;25297;44.758;11.310;2024-03-07T11:13:03;3.95;;;2.30;;
39600;SDS011;25297;44.758;11.310;2024-03-07T11:15:31;4.13;;;2.28;;
39600;SDS011;25297;44.758;11.310;2024-03-07T11:17:58;4.32;;;2.70;;
39600;SDS011;25297;44.758;11.310;2024-03-07T11:20:35;6.65;;;2.50;;
39600;SDS011;25297;44.758;11.310;2024-03-07T11:23:24;4.07;;;2.25;;
39600;SDS011;25297;44.758;11.310;2024-03-07T11:26:06;2.85;;;1.90;;
39600;SDS011;25297;44.758;11.310;2024-03-07T11:28:36;3.53;;;1.80;;
39600;SDS011;25297;44.758;11.310;2024-03-07T11:31:12;3.67;;;2.20;;
39600;SDS011;25297;44.758;11.310;2024-03-07T11:34:11;3.65;;;1.98;;
39600;SDS011;25297;44.758;11.310;2024-03-07T11:36:47;4.68;;;2.20;;
39600;SDS011;25297;44.758;11.310;2024-03-07T11:39:39;5.18;;;2.30;;
39600;SDS011;25297;44.758;11.310;2024-03-07T11:42:08;6.97;;;2.10;;
39600;SDS011;25297;44.758;11.310;2024-03-07T11:44:34;3.80;;;2.22;;
39600;SDS011;25297;44.758;11.310;2024-03-07T11:47:02;5.03;;;1.90;;
39600;SDS011;25297;44.758;11.310;2024-03-07T11:49:34;2.97;;;2.30;;
39600;SDS011;25297;44.758;11.310;2024-03-07T11:52:01;4.97;;;1.98;;
39600;SDS011;25297;44.758;11.310;2024-03-07T11:54:37;3.08;;;2.03;;
39600;SDS011;25297;44.758;11.310;2024-03-07T11:57:11;8.48;;;2.10;;
39600;SDS011;25297;44.758;11.310;2024-03-07T11:59:57;7.00;;;2.30;;
39600;SDS011;25297;44.758;11.310;2024-03-07T12:02:26;3.85;;;2.20;;
39600;SDS011;25297;44.758;11.310;2024-03-07T12:04:52;5.95;;;2.78;;
39600;SDS011;25297;44.758;11.310;2024-03-07T12:07:18;4.60;;;2.92;;
39600;SDS011;25297;44.758;11.310;2024-03-07T12:09:47;4.75;;;2.55;;
39600;SDS011;25297;44.758;11.310;2024-03-07T12:12:19;5.80;;;2.70;;
39600;SDS011;25297;44.758;11.310;2024-03-07T12:14:50;7.13;;;2.90;;
39600;SDS011;25297;44.758;11.310;2024-03-07T12:17:19;5.43;;;2.13;;
39600;SDS011;25297;44.758;11.310;2024-03-07T12:19:46;6.28;;;2.80;;
39600;SDS011;25297;44.758;11.310;2024-03-07T12:22:12;7.00;;;3.38;;
39600;SDS011;25297;44.758;11.310;2024-03-07T12:24:39;5.13;;;3.00;;
39600;SDS011;25297;44.758;11.310;2024-03-07T12:29:35;4.45;;;3.15;;
39600;SDS011;25297;44.758;11.310;2024-03-07T12:32:03;4.57;;;2.15;;
39600;SDS011;25297;44.758;11.310;2024-03-07T12:34:33;4.80;;;2.30;;
39600;SDS011;25297;44.758;11.310;2024-03-07T12:37:03;5.60;;;2.78;;
39600;SDS011;25297;44.758;11.310;2024-03-07T12:39:31;4.82;;;2.58;;
39600;SDS011;25297;44.758;11.310;2024-03-07T12:42:01;3.80;;;2.25;;
39600;SDS011;25297;44.758;11.310;2024-03-07T12:44:38;4.60;;;2.72;;
39600;SDS011;25297;44.758;11.310;2024-03-07T12:47:08;6.03;;;2.47;;
39600;SDS011;25297;44.758;11.310;2024-03-07T12:49:35;6.63;;;3.10;;
39600;SDS011;25297;44.758;11.310;2024-03-07T12:52:00;5.32;;;3.67;;
39600;SDS011;25297;44.758;11.310;2024-03-07T12:54:26;8.00;;;3.45;;
39600;SDS011;25297;44.758;11.310;2024-03-07T12:56:52;4.75;;;3.10;;
39600;SDS011;25297;44.758;11.310;2024-03-07T12:59:18;6.53;;;3.30;;
39600;SDS011;25297;44.758;11.310;2024-03-07T13:01:44;4.22;;;3.03;;
39600;SDS011;25297;44.758;11.310;2024-03-07T13:04:12;4.35;;;2.65;;
39600;SDS011;25297;44.758;11.310;2024-03-07T13:06:39;6.20;;;2.80;;
39600;SDS011;25297;44.758;11.310;2024-03-07T13:09:08;6.45;;;2.95;;
39600;SDS011;25297;44.758;11.310;2024-03-07T13:11:37;9.52;;;2.75;;
39600;SDS011;25297;44.758;11.310;2024-03-07T13:14:06;6.07;;;2.75;;
39600;SDS011;25297;44.758;11.310;2024-03-07T13:16:32;7.32;;;4.07;;
39600;SDS011;25297;44.758;11.310;2024-03-07T13:18:58;6.57;;;3.20;;
39600;SDS011;25297;44.758;11.310;2024-03-07T13:21:24;5.35;;;3.55;;
39600;SDS011;25297;44.758;11.310;2024-03-07T13:23:52;7.53;;;4.70;;
39600;SDS011;25297;44.758;11.310;2024-03-07T13:26:22;9.10;;;4.85;;
39600;SDS011;25297;44.758;11.310;2024-03-07T13:28:53;9.82;;;3.42;;
39600;SDS011;25297;44.758;11.310;2024-03-07T13:31:19;6.68;;;3.85;;
39600;SDS011;25297;44.758;11.310;2024-03-07T13:33:45;7.72;;;3.75;;
39600;SDS011;25297;44.758;11.310;2024-03-07T13:36:11;6.20;;;3.65;;
39600;SDS011;25297;44.758;11.310;2024-03-07T13:38:39;3.85;;;2.80;;
39600;SDS011;25297;44.758;11.310;2024-03-07T13:41:05;6.95;;;4.47;;
39600;SDS011;25297;44.758;11.310;2024-03-07T13:43:31;6.18;;;3.63;;
39600;SDS011;25297;44.758;11.310;2024-03-07T13:45:58;4.35;;;3.30;;
39600;SDS011;25297;44.758;11.310;2024-03-07T13:48:25;6.85;;;3.53;;
39600;SDS011;25297;44.758;11.310;2024-03-07T13:50:50;4.68;;;3.30;;
39600;SDS011;25297;44.758;11.310;2024-03-07T13:53:19;6.25;;;4.28;;
39600;SDS011;25297;44.758;11.310;2024-03-07T14:06:50;4.45;;;3.30;;
39600;SDS011;25297;44.758;11.310;2024-03-07T14:32:13;8.68;;;3.65;;
39600;SDS011;25297;44.758;11.310;2024-03-07T14:40:32;6.70;;;3.58;;
39600;SDS011;25297;44.758;11.310;2024-03-07T14:43:00;5.80;;;3.05;;
39600;SDS011;25297;44.758;11.310;2024-03-07T14:45:31;6.00;;;2.90;;
39600;SDS011;25297;44.758;11.310;2024-03-07T14:48:01;14.13;;;3.88;;
39600;SDS011;25297;44.758;11.310;2024-03-07T14:50:29;15.02;;;7.45;;
39600;SDS011;25297;44.758;11.310;2024-03-07T14:52:57;8.70;;;5.38;;
39600;SDS011;25297;44.758;11.310;2024-03-07T14:55:23;7.30;;;3.45;;
39600;SDS011;25297;44.758;11.310;2024-03-07T14:57:49;9.18;;;4.50;;
39600;SDS011;25297;44.758;11.310;2024-03-07T15:00:15;10.52;;;5.13;;
39600;SDS011;25297;44.758;11.310;2024-03-07T15:02:47;11.98;;;5.15;;
39600;SDS011;25297;44.758;11.310;2024-03-07T15:05:14;8.15;;;4.82;;
39600;SDS011;25297;44.758;11.310;2024-03-07T15:07:41;7.88;;;3.28;;
39600;SDS011;25297;44.758;11.310;2024-03-07T15:10:10;5.65;;;3.42;;
39600;SDS011;25297;44.758;11.310;2024-03-07T15:12:43;16.45;;;3.72;;